sensor_id;sensor_type;location;lat;lon;timestamp;temperature;humidity
44627;DHT22;30333;52.192;8.834;2022-08-04T00:01:00;21.20;99.90
44627;DHT22;30333;52.192;8.834;2022-08-04T00:03:33;21.20;99.90
44627;DHT22;30333;52.192;8.834;2022-08-04T00:06:09;21.30;99.90
44627;DHT22;30333;52.192;8.834;2022-08-04T00:08:44;21.30;99.90
44627;DHT22;30333;52.192;8.834;2022-08-04T00:11:15;21.30;99.90
44627;DHT22;30333;52.192;8.834;2022-08-04T00:13:51;21.30;99.90
44627;DHT22;30333;52.192;8.834;2022-08-04T00:16:31;21.30;99.90
44627;DHT22;30333;52.192;8.834;2022-08-04T00:19:09;21.60;99.90
44627;DHT22;30333;52.192;8.834;2022-08-04T00:21:38;21.60;99.90
44627;DHT22;30333;52.192;8.834;2022-08-04T00:24:07;21.70;99.90
44627;DHT22;30333;52.192;8.834;2022-08-04T00:26:39;21.80;99.90
44627;DHT22;30333;52.192;8.834;2022-08-04T00:29:06;21.90;99.90
44627;DHT22;30333;52.192;8.834;2022-08-04T00:31:33;21.80;99.90
44627;DHT22;30333;52.192;8.834;2022-08-04T00:34:24;21.80;99.90
44627;DHT22;30333;52.192;8.834;2022-08-04T00:36:52;21.90;99.90
44627;DHT22;30333;52.192;8.834;2022-08-04T00:39:20;21.90;99.90
44627;DHT22;30333;52.192;8.834;2022-08-04T00:42:08;21.90;99.90
44627;DHT22;30333;52.192;8.834;2022-08-04T00:44:55;21.90;99.90
44627;DHT22;30333;52.192;8.834;2022-08-04T00:47:37;21.80;99.90
44627;DHT22;30333;52.192;8.834;2022-08-04T00:50:10;21.70;99.90
44627;DHT22;30333;52.192;8.834;2022-08-04T00:52:55;21.70;99.90
44627;DHT22;30333;52.192;8.834;2022-08-04T00:55:26;21.70;99.90
44627;DHT22;30333;52.192;8.834;2022-08-04T00:58:09;21.70;99.90
44627;DHT22;30333;52.192;8.834;2022-08-04T01:00:51;21.60;99.90
44627;DHT22;30333;52.192;8.834;2022-08-04T01:03:26;21.60;99.90
44627;DHT22;30333;52.192;8.834;2022-08-04T01:06:08;21.60;99.90
44627;DHT22;30333;52.192;8.834;2022-08-04T01:08:58;21.60;99.90
44627;DHT22;30333;52.192;8.834;2022-08-04T01:11:39;21.50;99.90
44627;DHT22;30333;52.192;8.834;2022-08-04T01:17:19;21.30;99.90
44627;DHT22;30333;52.192;8.834;2022-08-04T01:19:55;21.20;99.90
44627;DHT22;30333;52.192;8.834;2022-08-04T01:23:01;21.20;99.90
44627;DHT22;30333;52.192;8.834;2022-08-04T01:25:50;21.20;99.90
44627;DHT22;30333;52.192;8.834;2022-08-04T01:28:28;21.10;99.90
44627;DHT22;30333;52.192;8.834;2022-08-04T01:31:05;21.00;99.90
44627;DHT22;30333;52.192;8.834;2022-08-04T01:33:38;21.00;99.90
44627;DHT22;30333;52.192;8.834;2022-08-04T01:36:32;21.00;99.90
44627;DHT22;30333;52.192;8.834;2022-08-04T01:39:00;21.00;99.90
44627;DHT22;30333;52.192;8.834;2022-08-04T01:41:47;21.00;99.90
44627;DHT22;30333;52.192;8.834;2022-08-04T01:44:26;20.90;99.90
44627;DHT22;30333;52.192;8.834;2022-08-04T01:46:55;20.70;99.90
44627;DHT22;30333;52.192;8.834;2022-08-04T01:49:27;20.60;99.90
44627;DHT22;30333;52.192;8.834;2022-08-04T01:51:59;20.60;99.90
44627;DHT22;30333;52.192;8.834;2022-08-04T01:54:29;20.60;99.90
44627;DHT22;30333;52.192;8.834;2022-08-04T01:56:57;20.70;99.90
44627;DHT22;30333;52.192;8.834;2022-08-04T01:59:25;20.70;99.90
44627;DHT22;30333;52.192;8.834;2022-08-04T02:01:55;20.70;99.90
44627;DHT22;30333;52.192;8.834;2022-08-04T02:04:22;20.70;99.90
44627;DHT22;30333;52.192;8.834;2022-08-04T02:06:58;20.60;99.90
44627;DHT22;30333;52.192;8.834;2022-08-04T02:09:32;20.50;99.90
44627;DHT22;30333;52.192;8.834;2022-08-04T02:12:26;20.50;99.90
44627;DHT22;30333;52.192;8.834;2022-08-04T02:15:02;20.40;99.90
44627;DHT22;30333;52.192;8.834;2022-08-04T02:17:35;20.40;99.90
44627;DHT22;30333;52.192;8.834;2022-08-04T02:20:07;20.40;99.90
44627;DHT22;30333;52.192;8.834;2022-08-04T02:22:39;20.50;99.90
44627;DHT22;30333;52.192;8.834;2022-08-04T02:25:09;20.50;99.90
44627;DHT22;30333;52.192;8.834;2022-08-04T02:27:54;20.40;99.90
44627;DHT22;30333;52.192;8.834;2022-08-04T02:30:31;20.50;99.90
44627;DHT22;30333;52.192;8.834;2022-08-04T02:33:02;20.50;99.90
44627;DHT22;30333;52.192;8.834;2022-08-04T02:35:34;20.40;99.90
44627;DHT22;30333;52.192;8.834;2022-08-04T02:38:12;22.40;99.90
44627;DHT22;30333;52.192;8.834;2022-08-04T02:40:42;20.30;99.90
44627;DHT22;30333;52.192;8.834;2022-08-04T02:43:10;20.30;99.90
44627;DHT22;30333;52.192;8.834;2022-08-04T02:45:40;20.30;99.90
44627;DHT22;30333;52.192;8.834;2022-08-04T02:48:10;20.30;99.90
44627;DHT22;30333;52.192;8.834;2022-08-04T02:50:58;20.30;99.90
44627;DHT22;30333;52.192;8.834;2022-08-04T02:53:26;20.30;99.90
44627;DHT22;30333;52.192;8.834;2022-08-04T02:55:55;20.30;99.90
44627;DHT22;30333;52.192;8.834;2022-08-04T02:58:25;20.30;99.90
44627;DHT22;30333;52.192;8.834;2022-08-04T03:00:57;20.30;99.90
44627;DHT22;30333;52.192;8.834;2022-08-04T03:03:33;20.20;99.90
44627;DHT22;30333;52.192;8.834;2022-08-04T03:06:23;20.20;99.90
44627;DHT22;30333;52.192;8.834;2022-08-04T03:09:24;20.20;99.90
44627;DHT22;30333;52.192;8.834;2022-08-04T03:12:25;20.20;99.90
44627;DHT22;30333;52.192;8.834;2022-08-04T03:18:41;20.10;99.90
44627;DHT22;30333;52.192;8.834;2022-08-04T03:24:35;19.90;99.90
44627;DHT22;30333;52.192;8.834;2022-08-04T03:27:31;20.00;99.90
44627;DHT22;30333;52.192;8.834;2022-08-04T03:30:09;19.90;99.90
44627;DHT22;30333;52.192;8.834;2022-08-04T03:33:05;19.90;99.90
44627;DHT22;30333;52.192;8.834;2022-08-04T03:36:17;19.90;99.90
44627;DHT22;30333;52.192;8.834;2022-08-04T03:39:30;19.90;99.90
44627;DHT22;30333;52.192;8.834;2022-08-04T03:42:19;19.90;99.90
44627;DHT22;30333;52.192;8.834;2022-08-04T03:51:11;19.80;99.90
44627;DHT22;30333;52.192;8.834;2022-08-04T03:57:34;19.70;99.90
44627;DHT22;30333;52.192;8.834;2022-08-04T04:00:06;19.70;99.90
44627;DHT22;30333;52.192;8.834;2022-08-04T04:03:01;19.60;99.90
44627;DHT22;30333;52.192;8.834;2022-08-04T04:06:12;19.70;99.90
44627;DHT22;30333;52.192;8.834;2022-08-04T04:14:58;19.70;99.90
44627;DHT22;30333;52.192;8.834;2022-08-04T04:17:47;19.70;99.90
44627;DHT22;30333;52.192;8.834;2022-08-04T04:20:24;19.60;99.90
44627;DHT22;30333;52.192;8.834;2022-08-04T04:23:01;19.70;99.90
44627;DHT22;30333;52.192;8.834;2022-08-04T04:25:48;19.70;99.90
44627;DHT22;30333;52.192;8.834;2022-08-04T04:31:33;19.60;99.90
44627;DHT22;30333;52.192;8.834;2022-08-04T04:34:15;19.60;99.90
44627;DHT22;30333;52.192;8.834;2022-08-04T04:36:52;19.70;99.90
44627;DHT22;30333;52.192;8.834;2022-08-04T04:39:31;19.70;99.90
44627;DHT22;30333;52.192;8.834;2022-08-04T04:42:11;19.80;99.90
44627;DHT22;30333;52.192;8.834;2022-08-04T04:45:04;19.80;99.90
44627;DHT22;30333;52.192;8.834;2022-08-04T04:47:43;19.80;99.90
44627;DHT22;30333;52.192;8.834;2022-08-04T04:50:39;19.90;99.90
44627;DHT22;30333;52.192;8.834;2022-08-04T04:53:16;20.10;99.90
44627;DHT22;30333;52.192;8.834;2022-08-04T04:55:50;20.10;99.90
44627;DHT22;30333;52.192;8.834;2022-08-04T04:58:19;20.20;99.90
44627;DHT22;30333;52.192;8.834;2022-08-04T05:01:11;20.30;99.90
44627;DHT22;30333;52.192;8.834;2022-08-04T05:04:00;20.40;99.90
44627;DHT22;30333;52.192;8.834;2022-08-04T05:06:42;20.50;99.90
44627;DHT22;30333;52.192;8.834;2022-08-04T05:09:31;20.50;99.90
44627;DHT22;30333;52.192;8.834;2022-08-04T05:12:25;20.60;99.90
44627;DHT22;30333;52.192;8.834;2022-08-04T05:15:18;20.70;99.90
44627;DHT22;30333;52.192;8.834;2022-08-04T05:17:54;20.80;99.90
44627;DHT22;30333;52.192;8.834;2022-08-04T05:20:25;20.90;99.90
44627;DHT22;30333;52.192;8.834;2022-08-04T05:22:55;20.90;99.90
44627;DHT22;30333;52.192;8.834;2022-08-04T05:25:26;21.00;99.90
44627;DHT22;30333;52.192;8.834;2022-08-04T05:28:02;21.00;99.90
44627;DHT22;30333;52.192;8.834;2022-08-04T05:30:36;21.00;99.90
44627;DHT22;30333;52.192;8.834;2022-08-04T05:33:10;21.00;99.90
44627;DHT22;30333;52.192;8.834;2022-08-04T05:35:42;21.00;99.90
44627;DHT22;30333;52.192;8.834;2022-08-04T05:38:33;21.00;99.90
44627;DHT22;30333;52.192;8.834;2022-08-04T05:41:01;21.20;99.90
44627;DHT22;30333;52.192;8.834;2022-08-04T05:43:29;21.30;99.90
44627;DHT22;30333;52.192;8.834;2022-08-04T05:45:56;21.40;99.90
44627;DHT22;30333;52.192;8.834;2022-08-04T05:48:26;21.50;99.90
44627;DHT22;30333;52.192;8.834;2022-08-04T05:50:54;21.60;99.90
44627;DHT22;30333;52.192;8.834;2022-08-04T05:53:27;21.60;99.90
44627;DHT22;30333;52.192;8.834;2022-08-04T05:55:55;21.60;99.90
44627;DHT22;30333;52.192;8.834;2022-08-04T05:58:27;22.70;99.90
44627;DHT22;30333;52.192;8.834;2022-08-04T06:03:23;21.70;99.90
44627;DHT22;30333;52.192;8.834;2022-08-04T06:05:53;21.70;99.90
44627;DHT22;30333;52.192;8.834;2022-08-04T06:08:22;21.80;99.90
44627;DHT22;30333;52.192;8.834;2022-08-04T06:10:50;21.90;99.90
44627;DHT22;30333;52.192;8.834;2022-08-04T06:13:25;22.10;99.90
44627;DHT22;30333;52.192;8.834;2022-08-04T06:16:13;22.00;99.90
44627;DHT22;30333;52.192;8.834;2022-08-04T06:18:58;22.70;99.90
44627;DHT22;30333;52.192;8.834;2022-08-04T06:21:50;22.60;99.90
44627;DHT22;30333;52.192;8.834;2022-08-04T06:24:19;23.00;99.90
44627;DHT22;30333;52.192;8.834;2022-08-04T06:26:47;23.30;99.90
44627;DHT22;30333;52.192;8.834;2022-08-04T06:29:16;23.30;99.90
44627;DHT22;30333;52.192;8.834;2022-08-04T06:32:00;23.40;99.90
44627;DHT22;30333;52.192;8.834;2022-08-04T06:34:50;23.50;99.90
44627;DHT22;30333;52.192;8.834;2022-08-04T06:37:19;23.70;99.90
44627;DHT22;30333;52.192;8.834;2022-08-04T06:40:07;23.70;99.90
44627;DHT22;30333;52.192;8.834;2022-08-04T06:42:55;23.60;99.90
44627;DHT22;30333;52.192;8.834;2022-08-04T06:45:23;23.70;99.90
44627;DHT22;30333;52.192;8.834;2022-08-04T06:47:50;23.80;99.90
44627;DHT22;30333;52.192;8.834;2022-08-04T06:50:19;23.90;99.90
44627;DHT22;30333;52.192;8.834;2022-08-04T06:53:08;24.00;99.90
44627;DHT22;30333;52.192;8.834;2022-08-04T06:55:35;24.10;99.90
44627;DHT22;30333;52.192;8.834;2022-08-04T06:58:02;24.20;99.90
44627;DHT22;30333;52.192;8.834;2022-08-04T07:00:31;24.30;99.90
44627;DHT22;30333;52.192;8.834;2022-08-04T07:02:59;24.40;99.90
44627;DHT22;30333;52.192;8.834;2022-08-04T07:05:26;24.60;99.90
44627;DHT22;30333;52.192;8.834;2022-08-04T07:07:54;24.70;99.90
44627;DHT22;30333;52.192;8.834;2022-08-04T07:10:25;24.70;99.90
44627;DHT22;30333;52.192;8.834;2022-08-04T07:12:54;24.80;99.90
44627;DHT22;30333;52.192;8.834;2022-08-04T07:15:22;24.90;99.90
44627;DHT22;30333;52.192;8.834;2022-08-04T07:17:50;24.90;99.90
44627;DHT22;30333;52.192;8.834;2022-08-04T07:20:18;24.90;99.90
44627;DHT22;30333;52.192;8.834;2022-08-04T07:23:02;25.00;99.90
44627;DHT22;30333;52.192;8.834;2022-08-04T07:25:32;25.10;99.90
44627;DHT22;30333;52.192;8.834;2022-08-04T07:28:20;25.50;99.90
44627;DHT22;30333;52.192;8.834;2022-08-04T07:30:48;28.20;99.90
44627;DHT22;30333;52.192;8.834;2022-08-04T07:35:42;25.60;99.90
44627;DHT22;30333;52.192;8.834;2022-08-04T07:38:30;25.70;99.90
44627;DHT22;30333;52.192;8.834;2022-08-04T07:40:59;25.70;99.90
44627;DHT22;30333;52.192;8.834;2022-08-04T07:43:30;28.00;99.90
44627;DHT22;30333;52.192;8.834;2022-08-04T07:45:57;25.90;99.90
44627;DHT22;30333;52.192;8.834;2022-08-04T07:48:24;25.90;99.90
44627;DHT22;30333;52.192;8.834;2022-08-04T07:50:51;26.10;99.90
44627;DHT22;30333;52.192;8.834;2022-08-04T07:53:18;26.10;99.90
44627;DHT22;30333;52.192;8.834;2022-08-04T07:56:07;26.20;99.80
44627;DHT22;30333;52.192;8.834;2022-08-04T07:58:34;26.20;99.90
44627;DHT22;30333;52.192;8.834;2022-08-04T08:01:01;26.20;99.40
44627;DHT22;30333;52.192;8.834;2022-08-04T08:03:28;26.20;99.40
44627;DHT22;30333;52.192;8.834;2022-08-04T08:05:55;26.30;99.30
44627;DHT22;30333;52.192;8.834;2022-08-04T08:08:42;26.40;99.50
44627;DHT22;30333;52.192;8.834;2022-08-04T08:11:11;26.50;98.60
44627;DHT22;30333;52.192;8.834;2022-08-04T08:13:38;26.50;98.20
44627;DHT22;30333;52.192;8.834;2022-08-04T08:16:05;26.70;98.00
44627;DHT22;30333;52.192;8.834;2022-08-04T08:18:32;26.70;97.70
44627;DHT22;30333;52.192;8.834;2022-08-04T08:20:59;26.70;97.50
44627;DHT22;30333;52.192;8.834;2022-08-04T08:23:29;26.80;98.10
44627;DHT22;30333;52.192;8.834;2022-08-04T08:25:56;26.90;97.90
44627;DHT22;30333;52.192;8.834;2022-08-04T08:28:25;27.00;98.00
44627;DHT22;30333;52.192;8.834;2022-08-04T08:30:52;27.10;97.90
44627;DHT22;30333;52.192;8.834;2022-08-04T08:33:25;27.10;97.40
44627;DHT22;30333;52.192;8.834;2022-08-04T08:35:57;27.20;98.50
44627;DHT22;30333;52.192;8.834;2022-08-04T08:38:46;27.30;98.00
44627;DHT22;30333;52.192;8.834;2022-08-04T08:47:42;27.50;97.50
44627;DHT22;30333;52.192;8.834;2022-08-04T08:50:47;27.60;97.00
44627;DHT22;30333;52.192;8.834;2022-08-04T08:53:26;27.70;95.40
44627;DHT22;30333;52.192;8.834;2022-08-04T08:59:14;28.10;95.60
44627;DHT22;30333;52.192;8.834;2022-08-04T09:02:04;28.10;95.70
44627;DHT22;30333;52.192;8.834;2022-08-04T09:04:47;28.30;96.30
44627;DHT22;30333;52.192;8.834;2022-08-04T09:07:36;28.30;94.20
44627;DHT22;30333;52.192;8.834;2022-08-04T09:10:09;28.50;94.00
44627;DHT22;30333;52.192;8.834;2022-08-04T09:12:45;28.60;93.40
44627;DHT22;30333;52.192;8.834;2022-08-04T09:15:15;28.60;93.10
44627;DHT22;30333;52.192;8.834;2022-08-04T09:17:47;28.60;93.20
44627;DHT22;30333;52.192;8.834;2022-08-04T09:20:23;28.70;93.60
44627;DHT22;30333;52.192;8.834;2022-08-04T09:23:03;28.80;92.90
44627;DHT22;30333;52.192;8.834;2022-08-04T09:25:38;28.90;92.40
44627;DHT22;30333;52.192;8.834;2022-08-04T09:28:15;29.10;93.00
44627;DHT22;30333;52.192;8.834;2022-08-04T09:31:08;29.10;93.20
44627;DHT22;30333;52.192;8.834;2022-08-04T09:33:43;29.20;91.90
44627;DHT22;30333;52.192;8.834;2022-08-04T09:36:25;29.30;91.70
44627;DHT22;30333;52.192;8.834;2022-08-04T09:39:03;29.40;90.80
44627;DHT22;30333;52.192;8.834;2022-08-04T09:41:37;29.50;90.90
44627;DHT22;30333;52.192;8.834;2022-08-04T09:44:25;29.60;91.10
44627;DHT22;30333;52.192;8.834;2022-08-04T09:47:18;29.60;91.40
44627;DHT22;30333;52.192;8.834;2022-08-04T09:49:52;29.80;91.70
44627;DHT22;30333;52.192;8.834;2022-08-04T09:52:28;29.90;91.70
44627;DHT22;30333;52.192;8.834;2022-08-04T09:55:03;30.00;90.60
44627;DHT22;30333;52.192;8.834;2022-08-04T09:57:44;30.00;90.80
44627;DHT22;30333;52.192;8.834;2022-08-04T10:00:13;30.10;91.00
44627;DHT22;30333;52.192;8.834;2022-08-04T10:02:46;30.00;90.30
44627;DHT22;30333;52.192;8.834;2022-08-04T10:05:16;30.10;90.00
44627;DHT22;30333;52.192;8.834;2022-08-04T10:08:01;30.30;90.20
44627;DHT22;30333;52.192;8.834;2022-08-04T10:10:50;30.40;89.20
44627;DHT22;30333;52.192;8.834;2022-08-04T10:13:24;30.40;90.40
44627;DHT22;30333;52.192;8.834;2022-08-04T10:16:02;30.40;90.20
44627;DHT22;30333;52.192;8.834;2022-08-04T10:18:44;30.50;90.50
44627;DHT22;30333;52.192;8.834;2022-08-04T10:26:32;30.70;90.60
44627;DHT22;30333;52.192;8.834;2022-08-04T10:29:04;30.80;90.00
44627;DHT22;30333;52.192;8.834;2022-08-04T10:31:34;30.80;90.00
44627;DHT22;30333;52.192;8.834;2022-08-04T10:34:06;31.10;90.10
44627;DHT22;30333;52.192;8.834;2022-08-04T10:36:40;30.90;86.60
44627;DHT22;30333;52.192;8.834;2022-08-04T10:39:14;31.00;88.80
44627;DHT22;30333;52.192;8.834;2022-08-04T10:42:12;31.10;87.40
44627;DHT22;30333;52.192;8.834;2022-08-04T10:44:51;31.10;86.00
44627;DHT22;30333;52.192;8.834;2022-08-04T10:47:27;31.10;88.20
44627;DHT22;30333;52.192;8.834;2022-08-04T10:50:00;31.20;86.30
44627;DHT22;30333;52.192;8.834;2022-08-04T10:52:32;31.30;86.60
44627;DHT22;30333;52.192;8.834;2022-08-04T10:55:06;31.40;84.40
44627;DHT22;30333;52.192;8.834;2022-08-04T10:57:39;31.40;83.80
44627;DHT22;30333;52.192;8.834;2022-08-04T11:00:09;31.90;84.50
44627;DHT22;30333;52.192;8.834;2022-08-04T11:02:45;31.50;81.30
44627;DHT22;30333;52.192;8.834;2022-08-04T11:05:23;31.60;81.70
44627;DHT22;30333;52.192;8.834;2022-08-04T11:07:59;31.60;81.10
44627;DHT22;30333;52.192;8.834;2022-08-04T11:10:29;31.70;83.10
44627;DHT22;30333;52.192;8.834;2022-08-04T11:13:03;31.70;81.70
44627;DHT22;30333;52.192;8.834;2022-08-04T11:15:35;31.80;80.70
44627;DHT22;30333;52.192;8.834;2022-08-04T11:18:07;31.80;82.20
44627;DHT22;30333;52.192;8.834;2022-08-04T11:20:47;31.70;82.10
44627;DHT22;30333;52.192;8.834;2022-08-04T11:23:17;31.90;81.20
44627;DHT22;30333;52.192;8.834;2022-08-04T11:25:51;31.80;81.80
44627;DHT22;30333;52.192;8.834;2022-08-04T11:28:32;31.80;83.00
44627;DHT22;30333;52.192;8.834;2022-08-04T11:31:04;31.80;80.20
44627;DHT22;30333;52.192;8.834;2022-08-04T11:33:37;31.90;81.80
44627;DHT22;30333;52.192;8.834;2022-08-04T11:36:13;31.90;81.80
44627;DHT22;30333;52.192;8.834;2022-08-04T11:38:45;32.30;82.30
44627;DHT22;30333;52.192;8.834;2022-08-04T11:41:36;32.20;80.00
44627;DHT22;30333;52.192;8.834;2022-08-04T11:44:06;32.60;81.50
44627;DHT22;30333;52.192;8.834;2022-08-04T11:46:40;32.30;82.90
44627;DHT22;30333;52.192;8.834;2022-08-04T11:49:13;32.40;81.20
44627;DHT22;30333;52.192;8.834;2022-08-04T11:51:42;32.50;81.80
44627;DHT22;30333;52.192;8.834;2022-08-04T11:54:10;32.50;80.90
44627;DHT22;30333;52.192;8.834;2022-08-04T11:56:38;32.70;80.20
44627;DHT22;30333;52.192;8.834;2022-08-04T11:59:06;32.90;81.60
44627;DHT22;30333;52.192;8.834;2022-08-04T12:04:36;32.80;78.50
44627;DHT22;30333;52.192;8.834;2022-08-04T12:07:13;33.00;78.40
44627;DHT22;30333;52.192;8.834;2022-08-04T12:10:17;33.20;78.30
44627;DHT22;30333;52.192;8.834;2022-08-04T12:13:12;33.30;75.90
44627;DHT22;30333;52.192;8.834;2022-08-04T12:15:51;33.30;77.30
44627;DHT22;30333;52.192;8.834;2022-08-04T12:18:26;33.30;75.40
44627;DHT22;30333;52.192;8.834;2022-08-04T12:21:00;33.30;78.10
44627;DHT22;30333;52.192;8.834;2022-08-04T12:23:35;33.50;80.30
44627;DHT22;30333;52.192;8.834;2022-08-04T12:26:06;33.40;74.50
44627;DHT22;30333;52.192;8.834;2022-08-04T12:28:35;33.50;73.90
44627;DHT22;30333;52.192;8.834;2022-08-04T12:31:26;33.40;73.70
44627;DHT22;30333;52.192;8.834;2022-08-04T12:33:58;33.30;74.40
44627;DHT22;30333;52.192;8.834;2022-08-04T12:36:36;33.50;75.40
44627;DHT22;30333;52.192;8.834;2022-08-04T12:39:09;33.60;79.10
44627;DHT22;30333;52.192;8.834;2022-08-04T12:41:39;34.90;77.90
44627;DHT22;30333;52.192;8.834;2022-08-04T12:44:11;33.90;75.70
44627;DHT22;30333;52.192;8.834;2022-08-04T12:47:00;34.40;78.10
44627;DHT22;30333;52.192;8.834;2022-08-04T12:49:49;33.80;74.80
44627;DHT22;30333;52.192;8.834;2022-08-04T12:52:27;33.70;73.20
44627;DHT22;30333;52.192;8.834;2022-08-04T12:55:16;33.40;75.60
44627;DHT22;30333;52.192;8.834;2022-08-04T12:57:43;33.30;77.90
44627;DHT22;30333;52.192;8.834;2022-08-04T13:00:22;33.30;75.40
44627;DHT22;30333;52.192;8.834;2022-08-04T13:03:03;33.30;75.90
44627;DHT22;30333;52.192;8.834;2022-08-04T13:05:38;33.50;73.40
44627;DHT22;30333;52.192;8.834;2022-08-04T13:08:05;33.50;73.70
44627;DHT22;30333;52.192;8.834;2022-08-04T13:10:37;33.60;74.10
44627;DHT22;30333;52.192;8.834;2022-08-04T13:13:11;33.60;76.10
44627;DHT22;30333;52.192;8.834;2022-08-04T13:15:39;33.50;76.40
44627;DHT22;30333;52.192;8.834;2022-08-04T13:18:29;33.60;73.30
44627;DHT22;30333;52.192;8.834;2022-08-04T13:21:18;33.60;71.80
44627;DHT22;30333;52.192;8.834;2022-08-04T13:24:11;34.00;73.20
44627;DHT22;30333;52.192;8.834;2022-08-04T13:26:53;33.80;71.20
44627;DHT22;30333;52.192;8.834;2022-08-04T13:29:24;33.80;68.00
44627;DHT22;30333;52.192;8.834;2022-08-04T13:32:15;33.90;67.80
44627;DHT22;30333;52.192;8.834;2022-08-04T13:34:45;33.80;66.00
44627;DHT22;30333;52.192;8.834;2022-08-04T13:37:20;34.10;67.90
44627;DHT22;30333;52.192;8.834;2022-08-04T13:39:50;34.10;68.40
44627;DHT22;30333;52.192;8.834;2022-08-04T13:42:32;34.30;61.60
44627;DHT22;30333;52.192;8.834;2022-08-04T13:45:05;33.90;61.30
44627;DHT22;30333;52.192;8.834;2022-08-04T13:47:35;33.90;61.90
44627;DHT22;30333;52.192;8.834;2022-08-04T13:50:17;33.90;62.50
44627;DHT22;30333;52.192;8.834;2022-08-04T13:52:46;34.20;63.50
44627;DHT22;30333;52.192;8.834;2022-08-04T13:55:21;34.50;62.30
44627;DHT22;30333;52.192;8.834;2022-08-04T13:57:54;34.60;61.50
44627;DHT22;30333;52.192;8.834;2022-08-04T14:00:22;34.50;61.70
44627;DHT22;30333;52.192;8.834;2022-08-04T14:03:01;34.50;64.90
44627;DHT22;30333;52.192;8.834;2022-08-04T14:05:30;34.40;63.80
44627;DHT22;30333;52.192;8.834;2022-08-04T14:08:20;34.20;63.70
44627;DHT22;30333;52.192;8.834;2022-08-04T14:10:53;34.00;64.70
44627;DHT22;30333;52.192;8.834;2022-08-04T14:13:28;33.90;64.40
44627;DHT22;30333;52.192;8.834;2022-08-04T14:16:15;33.70;66.20
44627;DHT22;30333;52.192;8.834;2022-08-04T14:18:42;33.70;67.50
44627;DHT22;30333;52.192;8.834;2022-08-04T14:21:12;33.60;65.40
44627;DHT22;30333;52.192;8.834;2022-08-04T14:23:45;33.50;66.10
44627;DHT22;30333;52.192;8.834;2022-08-04T14:26:25;33.30;65.90
44627;DHT22;30333;52.192;8.834;2022-08-04T14:29:07;33.40;65.90
44627;DHT22;30333;52.192;8.834;2022-08-04T14:31:59;33.50;64.60
44627;DHT22;30333;52.192;8.834;2022-08-04T14:34:29;33.10;64.50
44627;DHT22;30333;52.192;8.834;2022-08-04T14:37:05;33.00;65.00
44627;DHT22;30333;52.192;8.834;2022-08-04T14:39:46;32.80;64.70
44627;DHT22;30333;52.192;8.834;2022-08-04T14:42:41;32.70;65.30
44627;DHT22;30333;52.192;8.834;2022-08-04T14:45:30;32.50;66.20
44627;DHT22;30333;52.192;8.834;2022-08-04T14:47:59;32.50;67.00
44627;DHT22;30333;52.192;8.834;2022-08-04T14:50:35;32.50;67.40
44627;DHT22;30333;52.192;8.834;2022-08-04T14:53:06;32.50;68.20
44627;DHT22;30333;52.192;8.834;2022-08-04T14:55:33;32.50;74.60
44627;DHT22;30333;52.192;8.834;2022-08-04T14:58:01;31.80;78.80
44627;DHT22;30333;52.192;8.834;2022-08-04T15:00:48;31.10;82.10
44627;DHT22;30333;52.192;8.834;2022-08-04T15:03:17;30.30;84.70
44627;DHT22;30333;52.192;8.834;2022-08-04T15:05:44;30.20;86.80
44627;DHT22;30333;52.192;8.834;2022-08-04T15:08:31;29.30;88.00
44627;DHT22;30333;52.192;8.834;2022-08-04T15:10:59;29.20;87.90
44627;DHT22;30333;52.192;8.834;2022-08-04T15:13:28;29.20;87.70
44627;DHT22;30333;52.192;8.834;2022-08-04T15:15:56;28.90;88.20
44627;DHT22;30333;52.192;8.834;2022-08-04T15:18:34;28.80;87.90
44627;DHT22;30333;52.192;8.834;2022-08-04T15:21:01;28.40;89.10
44627;DHT22;30333;52.192;8.834;2022-08-04T15:23:28;28.30;89.70
44627;DHT22;30333;52.192;8.834;2022-08-04T15:26:09;28.40;90.10
44627;DHT22;30333;52.192;8.834;2022-08-04T15:28:41;28.50;89.50
44627;DHT22;30333;52.192;8.834;2022-08-04T15:31:10;28.90;90.10
44627;DHT22;30333;52.192;8.834;2022-08-04T15:33:58;28.40;90.00
44627;DHT22;30333;52.192;8.834;2022-08-04T15:36:33;28.40;90.00
44627;DHT22;30333;52.192;8.834;2022-08-04T15:39:05;28.40;89.40
44627;DHT22;30333;52.192;8.834;2022-08-04T15:41:47;28.50;89.70
44627;DHT22;30333;52.192;8.834;2022-08-04T15:44:50;28.50;89.80
44627;DHT22;30333;52.192;8.834;2022-08-04T15:47:24;28.40;90.00
44627;DHT22;30333;52.192;8.834;2022-08-04T15:50:04;28.60;90.20
44627;DHT22;30333;52.192;8.834;2022-08-04T15:52:59;28.80;89.50
44627;DHT22;30333;52.192;8.834;2022-08-04T15:55:40;28.80;89.30
44627;DHT22;30333;52.192;8.834;2022-08-04T15:58:11;28.80;89.80
44627;DHT22;30333;52.192;8.834;2022-08-04T16:01:12;28.70;87.50
44627;DHT22;30333;52.192;8.834;2022-08-04T16:03:44;28.50;87.10
44627;DHT22;30333;52.192;8.834;2022-08-04T16:06:44;28.50;87.30
44627;DHT22;30333;52.192;8.834;2022-08-04T16:09:25;28.30;88.30
44627;DHT22;30333;52.192;8.834;2022-08-04T16:15:38;28.40;88.50
44627;DHT22;30333;52.192;8.834;2022-08-04T16:18:06;29.40;88.90
44627;DHT22;30333;52.192;8.834;2022-08-04T16:20:54;28.60;88.40
44627;DHT22;30333;52.192;8.834;2022-08-04T16:23:54;28.30;87.20
44627;DHT22;30333;52.192;8.834;2022-08-04T16:26:47;28.20;87.40
44627;DHT22;30333;52.192;8.834;2022-08-04T16:29:45;28.20;86.80
44627;DHT22;30333;52.192;8.834;2022-08-04T16:32:19;28.20;87.40
44627;DHT22;30333;52.192;8.834;2022-08-04T16:34:52;28.10;87.80
44627;DHT22;30333;52.192;8.834;2022-08-04T16:37:24;28.30;87.90
44627;DHT22;30333;52.192;8.834;2022-08-04T16:40:22;28.10;87.90
44627;DHT22;30333;52.192;8.834;2022-08-04T16:42:57;28.30;87.80
44627;DHT22;30333;52.192;8.834;2022-08-04T16:45:48;28.30;87.50
44627;DHT22;30333;52.192;8.834;2022-08-04T16:48:18;28.00;87.80
44627;DHT22;30333;52.192;8.834;2022-08-04T16:50:48;28.10;88.60
44627;DHT22;30333;52.192;8.834;2022-08-04T16:53:16;29.00;88.10
44627;DHT22;30333;52.192;8.834;2022-08-04T16:56:05;27.90;87.30
44627;DHT22;30333;52.192;8.834;2022-08-04T16:58:34;27.80;88.30
44627;DHT22;30333;52.192;8.834;2022-08-04T17:01:07;27.80;88.00
44627;DHT22;30333;52.192;8.834;2022-08-04T17:03:38;27.70;88.30
44627;DHT22;30333;52.192;8.834;2022-08-04T17:06:09;27.70;87.90
44627;DHT22;30333;52.192;8.834;2022-08-04T17:08:37;27.70;88.40
44627;DHT22;30333;52.192;8.834;2022-08-04T17:11:05;27.70;89.10
44627;DHT22;30333;52.192;8.834;2022-08-04T17:13:34;27.50;88.90
44627;DHT22;30333;52.192;8.834;2022-08-04T17:16:21;27.40;89.70
44627;DHT22;30333;52.192;8.834;2022-08-04T17:18:53;27.40;90.00
44627;DHT22;30333;52.192;8.834;2022-08-04T17:21:21;27.30;90.20
44627;DHT22;30333;52.192;8.834;2022-08-04T17:23:49;27.40;89.50
44627;DHT22;30333;52.192;8.834;2022-08-04T17:26:39;27.30;89.90